Time;durP1;ratioP1;P1;durP2;ratioP2;P2;SDS_P1;SDS_P2;PMS_P1;PMS_P2;Temp;Humidity;BMP_temperature;BMP_pressure;BME280_temperature;BME280_humidity;BME280_pressure;Samples;Min_cycle;Max_cycle;Signal;HPM_P1;HPM_P2
2022/03/29 00:01:52;;;;;;;12.57;8.07;;;;;;;15.38;43.56;94844.69;5089593;28;20668;-76
2022/03/29 00:04:18;;;;;;;12.53;8.53;;;;;;;15.37;43.28;94847.41;5089392;28;20296;-74
2022/03/29 00:06:45;;;;;;;17.80;9.13;;;;;;;15.36;43.33;94841.44;5089814;28;20629;-77
2022/03/29 00:09:12;;;;;;;16.07;9.40;;;;;;;15.33;43.53;94836.66;5089534;28;20573;-78
2022/03/29 00:11:39;;;;;;;10.73;7.43;;;;;;;15.31;43.46;94828.25;5089126;28;20190;-76
2022/03/29 00:14:06;;;;;;;13.30;8.17;;;;;;;15.29;43.53;94830.22;5089087;28;20685;-76
2022/03/29 00:23:18;;;;;;;12.40;7.23;;;;;;;15.20;43.85;94808.81;5089098;28;20227;-74
2022/03/29 00:25:45;;;;;;;12.17;8.50;;;;;;;15.19;43.66;94817.47;5089463;28;20419;-77
2022/03/29 00:28:12;;;;;;;13.20;8.10;;;;;;;15.19;43.77;94814.09;5089199;28;20988;-78
2022/03/29 00:30:38;;;;;;;12.97;7.63;;;;;;;15.17;43.74;94810.91;5089606;28;20201;-76
2022/03/29 00:33:05;;;;;;;14.40;7.80;;;;;;;15.16;43.70;94812.66;5088966;28;20202;-75
2022/03/29 00:35:32;;;;;;;12.70;8.40;;;;;;;15.13;43.68;94804.47;5089818;28;20190;-76
2022/03/29 00:37:59;;;;;;;10.80;7.50;;;;;;;15.15;43.94;94807.66;5089389;28;20200;-75
2022/03/29 00:40:27;;;;;;;11.70;8.73;;;;;;;15.12;43.97;94806.22;5089399;28;20193;-75
2022/03/29 00:42:54;;;;;;;11.17;8.60;;;;;;;15.10;44.11;94794.47;5089605;28;20190;-76
2022/03/29 00:45:21;;;;;;;14.27;9.03;;;;;;;15.10;44.05;94803.00;5089438;28;20189;-78
2022/03/29 00:47:48;;;;;;;10.43;7.37;;;;;;;15.10;44.33;94799.63;5088977;28;20178;-74
2022/03/29 00:50:15;;;;;;;10.40;8.30;;;;;;;15.04;44.18;94791.59;5089060;28;20224;-75
2022/03/29 00:52:42;;;;;;;12.07;8.17;;;;;;;15.02;44.26;94779.81;5089063;28;20243;-77
2022/03/29 00:55:13;;;;;;;15.43;7.97;;;;;;;15.05;44.30;94794.97;5088990;28;20189;-77
2022/03/29 00:57:41;;;;;;;11.87;7.40;;;;;;;15.04;44.41;94788.22;5089175;28;20201;-74
2022/03/29 01:00:10;;;;;;;9.67;7.80;;;;;;;15.02;44.47;94787.56;5088666;28;20189;-76
2022/03/29 01:02:37;;;;;;;13.43;8.53;;;;;;;14.99;44.41;94783.53;5088874;28;20569;-77
2022/03/29 01:05:04;;;;;;;12.03;7.50;;;;;;;14.99;44.37;94775.81;5088812;28;20196;-77
2022/03/29 01:07:31;;;;;;;12.77;8.23;;;;;;;14.97;44.36;94780.31;5090083;28;20190;-77
2022/03/29 01:10:00;;;;;;;10.73;7.87;;;;;;;14.94;44.59;94772.09;5092702;28;20221;-76
2022/03/29 01:12:28;;;;;;;11.37;8.13;;;;;;;14.89;44.59;94764.88;5092255;28;20319;-77
2022/03/29 01:14:57;;;;;;;17.23;7.70;;;;;;;14.84;44.83;94759.41;5092535;28;20198;-75
2022/03/29 01:17:40;;;;;;;12.63;7.70;;;;;;;14.83;44.83;94752.66;5091977;28;20186;-76
2022/03/29 01:20:09;;;;;;;12.10;7.53;;;;;;;14.80;44.80;94763.25;5092493;28;20208;-77
2022/03/29 01:22:41;;;;;;;15.63;8.07;;;;;;;14.72;44.78;94748.66;5092335;28;20231;-77
2022/03/29 01:25:08;;;;;;;9.80;7.23;;;;;;;14.73;44.99;94746.88;5092017;28;20200;-76
2022/03/29 01:27:37;;;;;;;16.20;8.10;;;;;;;14.66;45.01;94738.19;5092150;28;20229;-77
2022/03/29 01:30:04;;;;;;;11.10;7.93;;;;;;;14.64;45.34;94733.19;5092039;28;20248;-75
2022/03/29 01:32:32;;;;;;;12.70;8.37;;;;;;;14.62;45.11;94736.91;5092118;28;20226;-76
2022/03/29 01:35:00;;;;;;;13.13;7.73;;;;;;;14.57;45.51;94732.22;5092219;28;20190;-74
2022/03/29 01:37:27;;;;;;;12.67;8.23;;;;;;;14.53;45.15;94726.59;5092134;28;20205;-74
2022/03/29 01:39:55;;;;;;;11.20;7.93;;;;;;;14.45;45.48;94713.69;5092018;28;20250;-75
2022/03/29 01:42:22;;;;;;;10.47;8.27;;;;;;;14.47;45.41;94716.13;5092016;28;20568;-76
2022/03/29 01:44:49;;;;;;;12.30;7.93;;;;;;;14.40;45.83;94708.22;5091958;28;20186;-73
2022/03/29 01:47:20;;;;;;;11.23;8.30;;;;;;;14.38;45.54;94715.31;5091332;28;20197;-76
2022/03/29 01:49:47;;;;;;;11.17;8.10;;;;;;;14.32;45.94;94708.22;5092305;28;20300;-78
2022/03/29 01:52:14;;;;;;;10.23;7.83;;;;;;;14.33;45.79;94717.53;5091657;28;20573;-74
2022/03/29 01:54:41;;;;;;;12.70;7.70;;;;;;;14.30;45.80;94713.53;5091906;28;20185;-76
2022/03/29 01:57:09;;;;;;;9.10;7.83;;;;;;;14.29;45.80;94709.38;5091737;28;20186;-74
2022/03/29 02:02:17;;;;;;;15.60;7.87;;;;;;;14.21;46.03;94705.97;5091467;28;20193;-77
2022/03/29 02:04:44;;;;;;;11.27;7.70;;;;;;;14.19;46.09;94708.69;5091722;28;20182;-75
2022/03/29 02:07:11;;;;;;;13.63;7.97;;;;;;;14.15;46.27;94698.88;5091521;28;20685;-76
2022/03/29 02:09:38;;;;;;;9.60;7.43;;;;;;;14.11;46.45;94700.97;5091372;28;20715;-76
2022/03/29 02:12:06;;;;;;;11.30;7.90;;;;;;;14.08;46.34;94696.16;5091451;28;20229;-75
2022/03/29 02:14:35;;;;;;;10.30;7.50;;;;;;;14.01;46.40;94684.91;5091497;28;20239;-76
2022/03/29 02:17:02;;;;;;;12.03;8.10;;;;;;;14.01;46.72;94684.91;5071010;28;20256;-77
2022/03/29 02:19:28;;;;;;;11.20;7.90;;;;;;;13.98;46.87;94677.50;5070612;28;20599;-76
2022/03/29 02:21:55;;;;;;;13.17;7.97;;;;;;;13.94;46.72;94677.00;5086660;28;20193;-74
2022/03/29 02:24:22;;;;;;;13.23;8.47;;;;;;;13.92;46.57;94681.50;5090940;28;20306;-77
2022/03/29 02:26:49;;;;;;;14.20;8.87;;;;;;;13.91;46.95;94685.03;5091071;28;20197;-75
2022/03/29 02:29:16;;;;;;;10.37;7.63;;;;;;;13.85;46.90;94675.38;5090672;28;20221;-73
2022/03/29 02:31:44;;;;;;;10.37;7.57;;;;;;;13.86;46.66;94673.59;5091316;28;20575;-73
2022/03/29 02:34:12;;;;;;;11.97;8.27;;;;;;;13.83;46.97;94673.94;5091329;28;20196;-74
2022/03/29 02:36:39;;;;;;;14.60;7.47;;;;;;;13.70;46.89;94658.97;5090818;28;20185;-76
2022/03/29 02:39:06;;;;;;;10.67;8.10;;;;;;;13.76;47.22;94674.56;5090783;28;20190;-75
2022/03/29 02:41:33;;;;;;;10.23;7.27;;;;;;;13.72;47.39;94670.69;5091160;28;20725;-74
2022/03/29 02:43:59;;;;;;;15.07;8.83;;;;;;;13.69;47.45;94675.38;5090672;28;20197;-76
2022/03/29 02:46:26;;;;;;;11.57;7.53;;;;;;;13.65;47.76;94668.94;5090904;28;20280;-77
2022/03/29 02:48:54;;;;;;;12.90;8.10;;;;;;;13.63;47.60;94669.06;5090505;28;20182;-73
2022/03/29 02:51:21;;;;;;;12.80;8.63;;;;;;;13.56;47.44;94665.53;5090864;28;20202;-77
2022/03/29 02:53:48;;;;;;;11.57;8.60;;;;;;;13.58;47.60;94673.06;5090305;28;20190;-77
2022/03/29 02:56:15;;;;;;;12.70;8.53;;;;;;;13.53;47.87;94674.34;5090991;28;20209;-73
2022/03/29 02:58:42;;;;;;;13.97;9.30;;;;;;;13.44;47.90;94670.16;5090493;28;20197;-77
2022/03/29 03:01:08;;;;;;;16.13;8.07;;;;;;;13.47;48.13;94669.00;5090794;28;20200;-77
2022/03/29 03:03:35;;;;;;;14.53;8.93;;;;;;;13.45;48.07;94665.81;5090678;28;20189;-77
2022/03/29 03:06:03;;;;;;;25.80;8.80;;;;;;;13.43;48.08;94670.31;5090632;28;20208;-77
2022/03/29 03:08:30;;;;;;;16.40;8.87;;;;;;;13.42;48.24;94669.47;5090240;28;20656;-75
2022/03/29 03:10:57;;;;;;;19.83;9.03;;;;;;;13.39;48.26;94667.25;5090835;28;20271;-79
2022/03/29 03:13:27;;;;;;;10.33;8.10;;;;;;;13.32;48.47;94658.53;5090013;28;20196;-77
2022/03/29 03:15:54;;;;;;;12.90;8.20;;;;;;;13.35;48.36;94660.00;5090411;28;20688;-78
2022/03/29 03:18:21;;;;;;;15.77;8.40;;;;;;;13.33;48.23;94661.91;5090260;28;20636;-78
2022/03/29 03:20:48;;;;;;;18.67;9.07;;;;;;;13.31;48.44;94662.06;5089951;28;20181;-77
2022/03/29 03:23:16;;;;;;;16.00;9.70;;;;;;;13.29;48.66;94661.41;5089712;28;20213;-75
2022/03/29 03:25:43;;;;;;;13.47;9.00;;;;;;;13.27;48.67;94663.34;5090058;28;20192;-77
2022/03/29 03:28:09;;;;;;;11.53;8.30;;;;;;;13.24;49.09;94658.50;5090139;28;20231;-76
2022/03/29 03:30:36;;;;;;;11.13;8.97;;;;;;;13.22;48.79;94653.53;5088965;28;20214;-75
2022/03/29 03:33:03;;;;;;;11.17;9.17;;;;;;;13.19;49.20;94653.81;5090105;28;20557;-78
2022/03/29 03:35:30;;;;;;;13.87;8.67;;;;;;;13.18;48.82;94656.53;5089954;28;20590;-78
2022/03/29 03:37:57;;;;;;;12.23;9.60;;;;;;;13.15;49.15;94657.63;5089975;28;20652;-77
2022/03/29 03:40:25;;;;;;;16.10;9.50;;;;;;;13.12;48.97;94654.56;5088688;28;20201;-76
2022/03/29 03:42:52;;;;;;;15.73;9.63;;;;;;;13.12;49.14;94659.69;5089382;28;20174;-77
2022/03/29 03:45:19;;;;;;;22.07;9.53;;;;;;;13.09;49.11;94663.41;5090066;28;20299;-76
2022/03/29 03:47:47;;;;;;;19.63;9.43;;;;;;;13.07;49.17;94658.41;5089755;28;20189;-75
2022/03/29 03:50:14;;;;;;;14.50;8.90;;;;;;;13.06;49.13;94651.66;5089705;28;20281;-72
2022/03/29 03:52:40;;;;;;;18.90;10.30;;;;;;;13.05;49.45;94655.19;5089047;28;20193;-75
2022/03/29 03:55:08;;;;;;;13.83;9.93;;;;;;;13.03;49.24;94657.09;5089779;28;20193;-76
2022/03/29 03:57:36;;;;;;;14.53;9.27;;;;;;;13.01;49.28;94655.66;5089366;28;20254;-74
2022/03/29 04:00:04;;;;;;;16.47;10.20;;;;;;;12.97;49.32;94652.59;5089793;28;20576;-73
2022/03/29 04:02:31;;;;;;;16.87;9.40;;;;;;;13.00;49.38;94651.50;5089409;28;20200;-76
2022/03/29 04:04:58;;;;;;;16.10;9.77;;;;;;;12.99;49.61;94660.13;5089235;28;20189;-74
2022/03/29 04:07:25;;;;;;;16.37;10.07;;;;;;;12.96;49.40;94650.19;5089611;28;20186;-75
2022/03/29 04:09:52;;;;;;;14.90;9.97;;;;;;;12.96;49.65;94653.56;5089408;28;20622;-77
2022/03/29 04:12:19;;;;;;;16.40;10.20;;;;;;;12.95;49.48;94658.81;5089126;28;20188;-73
2022/03/29 04:14:47;;;;;;;16.23;9.93;;;;;;;12.93;49.65;94658.97;5089401;28;20189;-77
2022/03/29 04:17:14;;;;;;;24.13;10.63;;;;;;;12.92;49.56;94657.38;5089490;28;20182;-74
2022/03/29 04:19:41;;;;;;;17.77;10.07;;;;;;;12.92;49.61;94657.38;5088970;28;20177;-77
2022/03/29 04:22:08;;;;;;;21.40;10.13;;;;;;;12.93;49.67;94648.72;5089207;28;20688;-73
2022/03/29 04:24:34;;;;;;;13.80;9.50;;;;;;;12.93;49.64;94658.97;5089006;28;20225;-75
2022/03/29 04:27:01;;;;;;;20.90;10.70;;;;;;;12.95;49.71;94666.53;5089518;28;20200;-77
2022/03/29 04:29:29;;;;;;;17.73;10.40;;;;;;;12.95;49.77;94663.94;5089061;28;20194;-76
2022/03/29 04:31:57;;;;;;;15.53;9.50;;;;;;;12.96;49.91;94658.69;5089585;28;20201;-78
2022/03/29 04:34:25;;;;;;;13.27;9.77;;;;;;;12.99;49.85;94655.00;5089431;28;20189;-76
2022/03/29 04:36:51;;;;;;;20.47;10.27;;;;;;;12.99;49.89;94650.66;5089378;28;20194;-75
2022/03/29 04:39:18;;;;;;;7.87;4.90;;;;;;;13.48;80.65;94647.53;5090626;28;20182;-75
2022/03/29 04:41:45;;;;;;;7.20;3.80;;;;;;;14.23;83.17;94655.97;5104945;28;20193;-75
2022/03/29 04:44:12;;;;;;;19.23;4.60;;;;;;;14.93;78.85;94652.84;5113642;28;20193;-74
2022/03/29 04:46:39;;;;;;;12.33;5.03;;;;;;;15.57;75.36;94658.72;5097796;28;20189;-78
2022/03/29 04:49:07;;;;;;;13.17;5.40;;;;;;;16.15;72.49;94646.31;5093695;28;20252;-81
2022/03/29 04:51:34;;;;;;;7.03;4.73;;;;;;;16.63;69.30;94648.66;5092606;28;20209;-82
2022/03/29 04:54:01;;;;;;;16.23;5.57;;;;;;;17.10;66.31;94650.97;5090887;28;20692;-85
2022/03/29 04:56:29;;;;;;;9.27;5.90;;;;;;;17.51;64.27;94653.03;5091112;28;20221;-82
2022/03/29 04:58:56;;;;;;;14.23;5.87;;;;;;;17.87;63.44;94653.06;5091076;28;20630;-75
2022/03/29 05:01:22;;;;;;;12.47;9.07;;;;;;;18.17;61.48;94653.75;5090427;28;20649;-82
2022/03/29 05:03:49;;;;;;;18.93;10.73;;;;;;;18.28;58.77;94658.44;5090766;28;20186;-78
2022/03/29 05:06:17;;;;;;;21.97;11.07;;;;;;;18.18;54.75;94645.03;5091236;28;20215;-80
2022/03/29 05:08:44;;;;;;;15.93;11.40;;;;;;;18.10;52.87;94641.75;5093591;28;20202;-80
2022/03/29 05:11:11;;;;;;;23.23;11.50;;;;;;;18.11;51.83;94658.88;5092194;28;20217;-76
2022/03/29 05:13:38;;;;;;;23.67;11.47;;;;;;;18.14;50.81;94661.13;5092766;28;20201;-77
2022/03/29 05:16:05;;;;;;;28.53;12.60;;;;;;;18.22;49.64;94653.19;5092432;28;20540;-79
2022/03/29 05:18:32;;;;;;;17.23;11.13;;;;;;;18.34;48.69;94649.13;5092751;28;20189;-80
2022/03/29 05:20:59;;;;;;;17.00;10.97;;;;;;;18.52;47.89;94657.28;5092869;28;20205;-81
2022/03/29 05:23:27;;;;;;;17.60;10.87;;;;;;;18.69;47.50;94655.19;5092626;28;20225;-79
2022/03/29 05:25:54;;;;;;;26.93;11.20;;;;;;;18.87;46.43;94654.75;5092697;28;20189;-77
2022/03/29 05:28:21;;;;;;;25.27;11.53;;;;;;;18.99;45.62;94658.41;5092820;28;20186;-80
2022/03/29 05:30:49;;;;;;;19.17;11.90;;;;;;;19.09;45.03;94658.06;5091572;28;20237;-81
2022/03/29 05:33:18;;;;;;;23.40;11.03;;;;;;;19.20;44.71;94662.72;5091864;28;20186;-79
2022/03/29 05:35:45;;;;;;;16.80;11.27;;;;;;;19.32;44.02;94652.59;5092492;28;20182;-81
2022/03/29 05:38:12;;;;;;;19.47;11.17;;;;;;;19.57;43.59;94652.13;5092765;28;20197;-81
2022/03/29 05:40:41;;;;;;;17.40;10.60;;;;;;;19.94;43.19;94650.84;5092831;28;20239;-75
2022/03/29 05:43:11;;;;;;;19.80;9.90;;;;;;;20.37;42.53;94658.31;5092154;28;20276;-79
2022/03/29 05:45:39;;;;;;;21.37;11.43;;;;;;;20.78;41.80;94658.94;5092235;28;20225;-83
2022/03/29 05:50:52;;;;;;;20.63;11.60;;;;;;;21.76;40.47;94669.31;5092128;28;20599;-80
2022/03/29 05:53:19;;;;;;;22.00;11.70;;;;;;;22.23;39.55;94653.44;5092277;28;20197;-75
2022/03/29 05:55:48;;;;;;;17.85;10.80;;;;;;;22.69;38.86;94657.53;5090847;28;20630;-78
2022/03/29 05:58:16;;;;;;;13.10;10.60;;;;;;;23.14;38.02;94658.13;5090875;28;20272;-80
2022/03/29 06:00:43;;;;;;;14.07;10.00;;;;;;;23.59;37.26;94657.06;5091682;28;20204;-76
2022/03/29 06:03:10;;;;;;;18.98;11.25;;;;;;;24.02;36.53;94660.34;5089734;28;20296;-80
2022/03/29 06:05:41;;;;;;;25.33;10.80;;;;;;;24.43;35.61;94656.16;5080754;28;20198;-81
2022/03/29 06:08:09;;;;;;;15.52;10.35;;;;;;;24.90;34.86;94658.84;5089378;28;20665;-81
2022/03/29 06:10:37;;;;;;;15.27;10.48;;;;;;;25.35;34.18;94650.44;5089033;28;20222;-75
2022/03/29 06:13:05;;;;;;;19.58;10.10;;;;;;;25.82;33.68;94655.59;5087852;28;20201;-76
2022/03/29 06:15:32;;;;;;;15.55;10.55;;;;;;;26.25;32.80;94655.06;5090197;28;20212;-75
2022/03/29 06:17:59;;;;;;;13.00;8.70;;;;;;;26.64;32.14;94652.56;5090556;28;20186;-78
2022/03/29 06:20:26;;;;;;;19.17;9.57;;;;;;;27.02;31.53;94649.19;5087954;28;20201;-73
2022/03/29 06:22:53;;;;;;;19.77;9.82;;;;;;;27.40;31.12;94658.13;5088803;28;20267;-79
2022/03/29 06:25:20;;;;;;;19.33;9.73;;;;;;;27.75;30.80;94660.41;5087913;28;20193;-81
2022/03/29 06:27:47;;;;;;;12.40;9.80;;;;;;;28.09;29.75;94657.63;5090202;28;20198;-77
2022/03/29 06:30:15;;;;;;;18.10;9.73;;;;;;;28.42;29.65;94661.94;5089943;28;20280;-75
2022/03/29 06:32:46;;;;;;;14.63;9.13;;;;;;;28.71;29.29;94651.91;5089898;28;20665;-70
2022/03/29 06:35:13;;;;;;;17.85;8.85;;;;;;;29.00;28.85;94646.34;5090312;28;20587;-79
2022/03/29 06:37:40;;;;;;;14.57;8.95;;;;;;;29.29;28.09;94651.25;5090664;28;20193;-80
2022/03/29 06:40:08;;;;;;;16.42;9.40;;;;;;;29.68;27.83;94651.72;5089976;28;20610;-71
2022/03/29 06:42:35;;;;;;;21.83;9.73;;;;;;;30.03;27.38;94653.66;5090153;28;20656;-77
2022/03/29 06:45:02;;;;;;;16.48;10.13;;;;;;;30.42;26.80;94650.59;5089891;28;20689;-74
2022/03/29 06:47:30;;;;;;;15.98;9.75;;;;;;;30.78;26.36;94650.63;5089038;28;20663;-71
2022/03/29 06:49:56;;;;;;;15.10;8.68;;;;;;;31.14;25.98;94648.75;5088165;28;20270;-78
2022/03/29 06:52:26;;;;;;;14.75;8.82;;;;;;;31.49;26.05;94650.53;5089502;28;20692;-78
2022/03/29 06:54:53;;;;;;;13.35;8.88;;;;;;;31.83;25.21;94649.88;5089742;28;20197;-72
2022/03/29 06:57:19;;;;;;;21.92;9.23;;;;;;;32.17;25.31;94661.34;5090190;28;20185;-71
2022/03/29 06:59:46;;;;;;;14.27;9.60;;;;;;;32.49;24.43;94644.22;5089627;28;20194;-73
2022/03/29 07:02:13;;;;;;;14.50;9.00;;;;;;;32.79;24.64;94639.75;5089785;28;20197;-73
2022/03/29 07:04:42;;;;;;;12.18;8.45;;;;;;;33.07;24.18;94643.47;5089884;28;20281;-77
2022/03/29 07:07:09;;;;;;;12.70;8.57;;;;;;;33.36;23.74;94643.44;5090048;28;20262;-69
2022/03/29 07:12:20;;;;;;;15.15;8.93;;;;;;;33.79;23.40;94620.41;5090475;28;20223;-71
2022/03/29 07:14:47;;;;;;;15.23;7.78;;;;;;;34.14;23.14;94637.75;5090429;28;20194;-71
2022/03/29 07:17:16;;;;;;;13.80;8.13;;;;;;;34.35;22.59;94640.88;5090934;28;20211;-71
2022/03/29 07:19:46;;;;;;;10.30;8.13;;;;;;;34.53;22.42;94636.66;5090586;28;20264;-75
2022/03/29 07:22:12;;;;;;;12.63;8.40;;;;;;;34.77;22.14;94633.09;5089714;28;20586;-78
2022/03/29 07:24:39;;;;;;;11.77;8.20;;;;;;;34.97;21.79;94631.94;5089209;28;20312;-77
2022/03/29 07:27:07;;;;;;;10.77;7.95;;;;;;;35.16;21.89;94628.19;5089975;28;20197;-78
2022/03/29 07:29:34;;;;;;;11.27;7.82;;;;;;;35.35;21.34;94620.09;5089416;28;20200;-75
2022/03/29 07:32:01;;;;;;;10.52;7.25;;;;;;;35.53;21.43;94626.44;5089492;28;20244;-82
2022/03/29 07:34:29;;;;;;;12.55;7.85;;;;;;;35.68;21.21;94628.78;5089262;28;20208;-80
2022/03/29 07:36:57;;;;;;;10.98;7.40;;;;;;;35.85;21.17;94622.06;5089607;28;20189;-81
2022/03/29 07:39:24;;;;;;;12.95;7.82;;;;;;;36.00;20.67;94618.31;5088866;28;20681;-69
2022/03/29 07:41:51;;;;;;;9.10;7.72;;;;;;;36.13;20.60;94630.78;5087961;28;20201;-77
2022/03/29 07:44:18;;;;;;;8.25;7.22;;;;;;;36.24;20.50;94626.03;5088935;28;20186;-82
2022/03/29 07:46:45;;;;;;;16.77;8.75;;;;;;;36.31;20.61;94629.06;5088896;28;20229;-73
2022/03/29 07:49:12;;;;;;;12.05;6.88;;;;;;;36.33;20.32;94616.25;5089124;28;20201;-75
2022/03/29 07:51:39;;;;;;;14.52;6.72;;;;;;;36.30;20.23;94606.19;5089604;28;20486;-84
2022/03/29 07:54:07;;;;;;;9.45;6.50;;;;;;;36.31;20.21;94611.19;5089557;28;20614;-82
2022/03/29 07:56:34;;;;;;;13.20;6.38;;;;;;;36.33;20.15;94601.03;5089212;28;20197;-78
2022/03/29 07:59:01;;;;;;;10.90;6.30;;;;;;;36.32;20.17;94612.78;5089274;28;20660;-78
2022/03/29 08:01:28;;;;;;;9.30;6.43;;;;;;;36.28;19.94;94608.38;5088786;28;20189;-80
2022/03/29 08:03:56;;;;;;;11.65;6.22;;;;;;;36.18;20.19;94602.19;5089622;28;20272;-72
2022/03/29 08:06:22;;;;;;;17.05;5.70;;;;;;;36.04;20.29;94590.78;5088990;28;20189;-76
2022/03/29 08:08:49;;;;;;;8.27;5.75;;;;;;;35.86;20.27;94599.69;5089256;28;20204;-80
2022/03/29 08:11:19;;;;;;;10.65;5.47;;;;;;;35.71;20.10;94603.47;5088910;28;20217;-71
2022/03/29 08:13:46;;;;;;;8.05;4.80;;;;;;;35.58;20.06;94596.25;5088643;28;20182;-70
2022/03/29 08:16:14;;;;;;;9.50;4.70;;;;;;;35.42;20.32;94601.09;5090469;28;20319;-78
2022/03/29 08:18:41;;;;;;;6.95;5.22;;;;;;;35.27;20.15;94594.19;5091489;28;20248;-79
2022/03/29 08:21:48;;;;;;;7.72;5.05;;;;;;;35.14;20.25;94579.81;5095041;28;20683;-73
2022/03/29 08:23:54;;;;;;;8.82;4.78;;;;;;;35.08;20.28;94582.88;5093798;28;20227;-71
2022/03/29 08:26:23;;;;;;;8.45;4.75;;;;;;;35.02;20.29;94584.03;5095720;28;20186;-84
2022/03/29 08:28:50;;;;;;;8.85;4.53;;;;;;;34.98;20.25;94580.41;5095738;28;20926;-76
2022/03/29 08:31:20;;;;;;;8.75;4.53;;;;;;;34.89;20.36;94580.28;5095730;28;20308;-82
2022/03/29 08:33:46;;;;;;;11.88;4.57;;;;;;;34.85;20.25;94580.06;5092118;28;20212;-79
2022/03/29 08:36:13;;;;;;;11.18;4.25;;;;;;;34.69;20.09;94554.84;5093352;28;20710;-73
2022/03/29 08:38:40;;;;;;;10.43;4.03;;;;;;;34.78;20.06;94569.03;5091940;28;20208;-76
2022/03/29 08:41:07;;;;;;;10.52;4.35;;;;;;;34.74;20.20;94556.63;5091493;28;20189;-78
2022/03/29 08:43:35;;;;;;;7.50;4.25;;;;;;;34.72;20.12;94554.28;5089576;28;20677;-79
2022/03/29 08:46:02;;;;;;;5.65;4.32;;;;;;;34.65;20.33;94556.50;5090259;28;20201;-84
2022/03/29 08:48:31;;;;;;;10.88;4.25;;;;;;;34.57;20.65;94552.66;5090016;28;20553;-80
2022/03/29 08:51:00;;;;;;;8.50;4.47;;;;;;;34.49;20.37;94542.69;5091376;28;20204;-78
2022/03/29 08:53:28;;;;;;;15.85;4.75;;;;;;;34.39;20.56;94535.66;5090025;28;20205;-78
2022/03/29 08:55:55;;;;;;;11.23;4.32;;;;;;;34.30;20.48;94542.72;5090345;28;20189;-78
2022/03/29 08:58:23;;;;;;;11.25;4.97;;;;;;;34.22;20.63;94540.72;5090448;28;20189;-70
2022/03/29 09:00:53;;;;;;;12.70;4.18;;;;;;;34.09;20.82;94522.88;5090634;28;20748;-77
2022/03/29 09:03:20;;;;;;;7.53;4.38;;;;;;;33.98;20.80;94526.75;5089177;28;20198;-73
2022/03/29 09:05:49;;;;;;;12.73;4.88;;;;;;;33.85;20.85;94533.56;5089906;28;20656;-78
2022/03/29 09:08:16;;;;;;;6.63;4.28;;;;;;;33.71;20.92;94514.94;5089704;28;20181;-81
2022/03/29 09:10:45;;;;;;;13.60;5.53;;;;;;;33.57;20.67;94514.06;5089581;28;20301;-82
2022/03/29 09:13:20;;;;;;;8.70;5.30;;;;;;;33.43;21.19;94509.47;5089936;28;20212;-82
2022/03/29 09:15:48;;;;;;;10.20;4.90;;;;;;;33.28;21.18;94506.19;5089116;28;20250;-80
2022/03/29 09:18:17;;;;;;;13.68;4.28;;;;;;;33.13;21.41;94496.59;5089289;28;20633;-78
2022/03/29 09:20:45;;;;;;;9.15;4.90;;;;;;;32.97;21.33;94498.63;5089316;28;20251;-81
2022/03/29 09:23:14;;;;;;;8.98;4.30;;;;;;;32.83;21.39;94497.72;5089124;28;20325;-78
2022/03/29 09:25:47;;;;;;;9.88;4.70;;;;;;;32.69;21.61;94497.59;5088851;28;20197;-82
2022/03/29 09:28:15;;;;;;;13.38;5.28;;;;;;;32.56;21.21;94495.63;5089272;28;20201;-76
2022/03/29 09:30:45;;;;;;;10.68;4.47;;;;;;;32.37;21.33;94483.03;5088866;28;20257;-82
2022/03/29 09:33:14;;;;;;;7.75;4.68;;;;;;;32.26;21.84;94481.56;5089579;28;20213;-82
2022/03/29 09:35:58;;;;;;;9.00;4.82;;;;;;;32.08;21.59;94482.25;5089214;28;20668;-83
2022/03/29 09:38:29;;;;;;;14.60;5.38;;;;;;;31.91;21.65;94483.47;5089087;28;20190;-78
2022/03/29 09:40:57;;;;;;;8.05;4.68;;;;;;;31.73;21.74;94478.78;5089093;28;20672;-76
2022/03/29 09:43:26;;;;;;;10.10;4.60;;;;;;;31.60;21.62;94477.53;5088888;28;20206;-83
2022/03/29 09:45:55;;;;;;;10.98;4.70;;;;;;;31.42;21.71;94472.91;5088908;28;20194;-73
2022/03/29 09:48:33;;;;;;;10.10;4.88;;;;;;;31.24;21.99;94477.72;5089035;28;20181;-80
2022/03/29 09:53:56;;;;;;;8.43;4.43;;;;;;;30.84;22.44;94477.91;5079546;27;1349881;-82
2022/03/29 09:56:26;;;;;;;10.10;4.85;;;;;;;30.61;22.63;94473.97;5104282;28;20702;-81
2022/03/29 09:59:04;;;;;;;11.82;4.97;;;;;;;30.42;22.40;94463.22;5104271;28;20279;-77
2022/03/29 10:01:32;;;;;;;13.07;4.45;;;;;;;30.22;22.61;94464.03;5106965;28;20192;-79
2022/03/29 10:04:02;;;;;;;13.85;5.10;;;;;;;30.05;22.77;94459.00;5103996;28;20660;-76
2022/03/29 10:06:31;;;;;;;11.20;4.40;;;;;;;29.87;23.00;94449.00;5106765;28;20189;-76
2022/03/29 10:11:46;;;;;;;10.18;4.45;;;;;;;29.53;23.20;94446.06;5107742;28;20189;-72
2022/03/29 10:14:15;;;;;;;8.23;5.10;;;;;;;29.41;23.08;94438.41;5106608;28;20193;-79
2022/03/29 10:16:45;;;;;;;11.80;4.75;;;;;;;29.20;23.26;94430.47;5106232;28;20228;-79
2022/03/29 10:19:12;;;;;;;10.80;5.38;;;;;;;29.10;23.17;94434.91;5104518;28;20276;-77
2022/03/29 10:21:39;;;;;;;11.20;4.93;;;;;;;29.00;23.30;94436.47;5105842;28;20193;-77
2022/03/29 10:24:08;;;;;;;7.93;4.65;;;;;;;28.91;23.29;94440.63;5100724;28;20985;-78
2022/03/29 10:26:36;;;;;;;12.93;5.30;;;;;;;28.82;23.74;94434.28;5105064;28;20192;-70
2022/03/29 10:29:03;;;;;;;9.80;5.28;;;;;;;28.74;23.57;94427.66;5104591;28;20203;-76
2022/03/29 10:31:33;;;;;;;11.25;5.45;;;;;;;28.69;23.90;94421.59;5104823;28;20200;-72
2022/03/29 10:34:24;;;;;;;8.95;4.55;;;;;;;28.64;23.93;94424.22;5106150;28;20282;-72
2022/03/29 10:37:08;;;;;;;8.82;4.55;;;;;;;28.56;24.07;94417.59;5104252;28;20186;-77
2022/03/29 10:39:48;;;;;;;6.60;4.45;;;;;;;28.48;23.94;94423.34;5106053;28;20193;-73
2022/03/29 10:42:37;;;;;;;10.43;4.97;;;;;;;28.37;23.87;94414.63;5105450;28;20287;-71
2022/03/29 10:45:13;;;;;;;10.82;4.50;;;;;;;28.26;24.00;94405.84;5105781;28;20683;-75
2022/03/29 10:47:42;;;;;;;12.48;4.43;;;;;;;28.19;24.15;94407.09;5105448;28;20189;-77
2022/03/29 10:50:12;;;;;;;6.63;4.43;;;;;;;28.15;24.05;94398.13;5105337;28;20559;-72
2022/03/29 10:52:41;;;;;;;10.75;4.93;;;;;;;28.10;23.95;94401.53;5103947;28;20289;-74
2022/03/29 10:55:20;;;;;;;17.27;4.72;;;;;;;28.06;24.27;94399.66;5104340;28;20238;-71
2022/03/29 10:58:11;;;;;;;9.35;4.57;;;;;;;27.97;24.25;94391.44;5104991;28;20192;-77
2022/03/29 11:00:39;;;;;;;10.55;5.05;;;;;;;27.90;24.39;94385.66;5103090;28;20200;-74
2022/03/29 11:03:20;;;;;;;13.52;4.85;;;;;;;27.86;24.31;94381.94;5103971;28;20220;-76
2022/03/29 11:06:11;;;;;;;10.52;5.10;;;;;;;27.79;24.36;94371.63;5091339;28;20190;-73
2022/03/29 11:08:40;;;;;;;12.52;5.00;;;;;;;27.73;24.49;94377.91;5091874;28;20194;-79
2022/03/29 11:11:29;;;;;;;7.57;5.18;;;;;;;27.60;24.40;94357.28;5091561;28;20219;-76
2022/03/29 11:13:56;;;;;;;10.18;4.90;;;;;;;27.49;24.63;94351.16;5091368;28;20258;-72
2022/03/29 11:16:31;;;;;;;13.95;5.05;;;;;;;27.48;24.34;94349.56;5091396;28;20671;-74
2022/03/29 11:18:59;;;;;;;13.98;5.00;;;;;;;27.44;24.72;94351.91;5089257;28;20644;-73
2022/03/29 11:21:40;;;;;;;10.52;4.97;;;;;;;27.41;24.70;94348.97;5091607;28;20668;-73
2022/03/29 11:24:11;;;;;;;8.88;4.78;;;;;;;27.36;24.83;94341.84;5089169;28;20278;-78
2022/03/29 11:26:54;;;;;;;13.75;4.55;;;;;;;27.30;24.90;94342.09;5091224;28;20239;-74
2022/03/29 11:29:21;;;;;;;9.60;4.55;;;;;;;27.25;24.66;94337.59;5088702;28;20676;-74
2022/03/29 11:31:50;;;;;;;13.88;4.45;;;;;;;27.17;24.75;94346.69;5091003;28;20194;-77
2022/03/29 11:34:17;;;;;;;12.80;5.10;;;;;;;27.11;25.11;94333.75;5091218;28;20285;-75
2022/03/29 11:36:44;;;;;;;9.55;4.50;;;;;;;27.06;24.78;94331.06;5091095;28;20189;-74
2022/03/29 11:39:28;;;;;;;11.80;4.60;;;;;;;27.00;25.11;94323.16;5090810;28;20247;-71
2022/03/29 11:41:57;;;;;;;7.05;4.97;;;;;;;26.99;24.65;94315.53;5090626;28;20258;-71
2022/03/29 11:44:27;;;;;;;7.50;4.97;;;;;;;26.98;25.01;94319.97;5089507;28;20197;-76
2022/03/29 11:46:56;;;;;;;10.93;5.32;;;;;;;26.95;24.80;94311.81;5088561;28;20208;-76
2022/03/29 11:49:26;;;;;;;8.95;4.47;;;;;;;26.93;25.12;94304.19;5090262;28;20573;-78
2022/03/29 11:52:17;;;;;;;7.85;4.57;;;;;;;26.91;25.04;94306.28;5090497;28;20546;-74